Time;durP1;ratioP1;P1;durP2;ratioP2;P2;SDS_P1;SDS_P2;PMS_P1;PMS_P2;Temp;Humidity;BMP_temperature;BMP_pressure;BME280_temperature;BME280_humidity;BME280_pressure;Samples;Min_cycle;Max_cycle;Signal;HPM_P1;HPM_P2
2022/10/05 00:00:46;;;;;;;2.70;0.80;;;12.40;99.90;;;;;;5059338;28;20751;-71
2022/10/05 00:03:13;;;;;;;2.87;0.97;;;12.40;99.90;;;;;;5055903;28;20454;-71
2022/10/05 00:05:41;;;;;;;2.10;1.10;;;12.40;99.90;;;;;;5059191;28;20546;-71
2022/10/05 00:08:14;;;;;;;1.30;0.90;;;12.30;99.90;;;;;;5056752;28;21348;-71
2022/10/05 00:10:43;;;;;;;1.30;0.93;;;12.30;99.90;;;;;;5059580;28;20489;-72
2022/10/05 00:13:16;;;;;;;0.87;0.70;;;12.30;99.90;;;;;;5056725;28;20448;-71
2022/10/05 00:15:44;;;;;;;2.63;0.80;;;12.30;99.90;;;;;;5059805;28;20496;-71
2022/10/05 00:18:14;;;;;;;1.43;0.80;;;12.30;99.90;;;;;;5055599;28;20478;-71
2022/10/05 00:20:42;;;;;;;2.70;0.80;;;12.30;99.90;;;;;;5057929;28;20448;-72
2022/10/05 00:23:17;;;;;;;1.50;0.90;;;12.30;99.90;;;;;;5055161;28;20479;-71
2022/10/05 00:25:45;;;;;;;1.40;0.90;;;12.30;99.90;;;;;;5056293;28;20787;-71
2022/10/05 00:28:18;;;;;;;1.10;0.70;;;12.20;99.90;;;;;;5053377;28;20443;-71
2022/10/05 00:30:45;;;;;;;1.90;0.80;;;12.20;99.90;;;;;;5057143;28;20505;-70
2022/10/05 00:33:12;;;;;;;4.10;0.83;;;12.20;99.90;;;;;;5054466;28;20748;-71
2022/10/05 00:35:39;;;;;;;1.37;0.90;;;12.20;99.90;;;;;;5057871;28;20447;-71
2022/10/05 00:38:06;;;;;;;1.80;0.90;;;12.20;99.90;;;;;;5055749;28;20457;-71
2022/10/05 00:40:40;;;;;;;1.50;1.00;;;12.20;99.90;;;;;;5058589;28;20458;-71
2022/10/05 00:43:38;;;;;;;3.40;0.90;;;12.20;99.90;;;;;;5054673;28;20480;-71
2022/10/05 00:46:10;;;;;;;1.70;0.80;;;12.10;99.90;;;;;;5057114;28;20944;-71
2022/10/05 00:48:45;;;;;;;1.90;0.90;;;12.10;99.90;;;;;;5056138;28;20455;-71
2022/10/05 00:51:26;;;;;;;1.73;0.80;;;12.10;99.90;;;;;;5058294;28;20451;-71
2022/10/05 00:54:02;;;;;;;1.67;1.00;;;12.10;99.90;;;;;;5053031;28;20458;-71
2022/10/05 00:56:46;;;;;;;3.37;1.00;;;12.00;99.90;;;;;;5056466;28;20493;-72
2022/10/05 00:59:24;;;;;;;1.33;0.90;;;12.10;99.90;;;;;;5053732;28;20477;-72
2022/10/05 01:01:59;;;;;;;1.70;1.00;;;12.10;99.90;;;;;;5057745;28;20443;-72
2022/10/05 01:04:36;;;;;;;1.90;1.07;;;12.00;99.90;;;;;;5058170;28;20457;-71
2022/10/05 01:07:12;;;;;;;1.17;0.90;;;12.00;99.90;;;;;;5058380;28;20439;-71
2022/10/05 01:09:45;;;;;;;1.50;1.00;;;11.90;99.90;;;;;;5057115;28;20483;-71
2022/10/05 01:12:23;;;;;;;1.30;0.90;;;11.90;99.90;;;;;;5061900;28;20453;-71
2022/10/05 01:15:01;;;;;;;1.17;0.90;;;11.80;99.90;;;;;;5058085;28;20462;-71
2022/10/05 01:17:33;;;;;;;2.20;1.00;;;11.70;99.90;;;;;;5060294;28;20447;-71
2022/10/05 01:20:19;;;;;;;1.20;0.90;;;11.70;99.90;;;;;;5057388;28;20714;-71
2022/10/05 01:23:19;;;;;;;4.67;1.00;;;11.70;99.90;;;;;;5060336;28;20455;-71
2022/10/05 01:25:57;;;;;;;1.70;0.93;;;11.60;99.90;;;;;;5059450;28;20455;-71
2022/10/05 01:28:29;;;;;;;4.50;1.03;;;11.60;99.90;;;;;;5055082;28;20562;-71
2022/10/05 01:31:07;;;;;;;1.80;1.03;;;11.60;99.90;;;;;;5057688;28;20505;-71
2022/10/05 01:33:38;;;;;;;1.93;1.00;;;11.70;99.90;;;;;;5053995;28;20455;-71
2022/10/05 01:36:12;;;;;;;1.90;1.17;;;11.70;99.90;;;;;;5057220;28;20469;-70
2022/10/05 01:38:48;;;;;;;1.43;0.90;;;11.60;99.90;;;;;;5055253;28;20870;-72
2022/10/05 01:41:25;;;;;;;1.53;0.93;;;11.60;99.90;;;;;;5059418;28;20725;-72
2022/10/05 01:43:57;;;;;;;1.17;0.90;;;11.70;99.90;;;;;;5057131;28;20572;-71
2022/10/05 01:46:33;;;;;;;1.23;0.90;;;11.70;99.90;;;;;;5058164;28;20517;-71
2022/10/05 01:49:17;;;;;;;1.30;0.90;;;11.70;99.90;;;;;;5055282;28;20486;-72
2022/10/05 01:51:57;;;;;;;2.70;1.03;;;11.60;99.90;;;;;;5057653;28;20447;-71
2022/10/05 01:54:32;;;;;;;1.10;0.90;;;11.60;99.90;;;;;;5056913;28;20558;-71
2022/10/05 01:57:06;;;;;;;1.80;1.10;;;11.60;99.90;;;;;;5053481;28;20462;-71
2022/10/05 01:59:46;;;;;;;1.70;0.90;;;11.70;99.90;;;;;;5057576;28;20898;-71
2022/10/05 02:02:18;;;;;;;2.23;0.90;;;11.80;99.90;;;;;;5054254;28;20455;-71
2022/10/05 02:04:50;;;;;;;4.90;1.13;;;11.80;99.90;;;;;;5057284;28;20546;-72
2022/10/05 02:07:22;;;;;;;1.20;0.90;;;11.80;99.90;;;;;;5052540;28;20742;-71
2022/10/05 02:09:55;;;;;;;2.63;1.30;;;11.80;99.90;;;;;;5056555;28;20487;-71
2022/10/05 02:12:25;;;;;;;2.20;1.00;;;11.70;99.90;;;;;;5053796;28;20462;-72
2022/10/05 02:14:58;;;;;;;1.87;1.03;;;11.80;99.90;;;;;;5057064;28;20456;-72
2022/10/05 02:17:32;;;;;;;1.40;1.00;;;11.70;99.90;;;;;;5056773;28;20483;-72
2022/10/05 02:20:03;;;;;;;2.20;1.20;;;11.60;99.90;;;;;;5053530;28;20807;-72
2022/10/05 02:22:35;;;;;;;2.20;0.87;;;11.60;99.90;;;;;;5056785;28;20550;-72
2022/10/05 02:25:06;;;;;;;1.20;0.90;;;11.60;99.90;;;;;;5054445;28;20744;-72
2022/10/05 02:27:39;;;;;;;2.00;1.07;;;11.60;99.90;;;;;;5056335;28;20447;-72
2022/10/05 02:30:09;;;;;;;1.70;1.00;;;11.60;99.90;;;;;;5053299;28;20489;-71
2022/10/05 02:32:40;;;;;;;2.50;1.00;;;11.60;99.90;;;;;;5057167;28;20891;-72
2022/10/05 02:35:14;;;;;;;2.30;0.87;;;11.60;99.90;;;;;;5053461;28;20724;-71
2022/10/05 02:37:49;;;;;;;1.20;0.90;;;11.50;99.90;;;;;;5055196;28;20462;-72
2022/10/05 02:40:25;;;;;;;1.57;0.90;;;11.50;99.90;;;;;;5051825;28;20904;-72
2022/10/05 02:43:00;;;;;;;4.53;1.20;;;11.50;99.90;;;;;;5054556;28;20482;-72
2022/10/05 02:45:40;;;;;;;3.97;1.20;;;11.60;99.90;;;;;;5052192;28;20455;-72
2022/10/05 02:48:12;;;;;;;1.70;1.00;;;11.50;99.90;;;;;;5055402;28;20471;-71
2022/10/05 02:50:48;;;;;;;2.63;1.10;;;11.30;99.90;;;;;;5052958;28;20491;-72
2022/10/05 02:53:24;;;;;;;3.77;1.20;;;11.30;99.90;;;;;;5056147;28;20886;-72
2022/10/05 02:56:04;;;;;;;3.00;0.90;;;11.30;99.90;;;;;;5053055;28;20454;-72
2022/10/05 02:58:37;;;;;;;1.43;1.00;;;11.40;99.90;;;;;;5056735;28;20435;-72
2022/10/05 03:01:15;;;;;;;1.40;0.90;;;11.40;99.90;;;;;;5053660;28;20452;-73
2022/10/05 03:03:45;;;;;;;1.23;0.83;;;11.50;99.90;;;;;;5057362;28;20454;-73
2022/10/05 03:06:18;;;;;;;6.40;1.40;;;11.50;99.90;;;;;;5053247;28;20919;-72
2022/10/05 03:08:56;;;;;;;5.93;1.00;;;11.40;99.90;;;;;;5055850;28;20438;-72
2022/10/05 03:11:33;;;;;;;2.77;1.10;;;11.40;99.90;;;;;;5053196;28;20540;-72
2022/10/05 03:14:08;;;;;;;1.40;0.97;;;11.50;99.90;;;;;;5055865;28;20473;-72
2022/10/05 03:16:47;;;;;;;1.67;0.90;;;11.50;99.90;;;;;;5052884;28;20758;-72
2022/10/05 03:19:25;;;;;;;1.50;0.90;;;11.40;99.90;;;;;;5054570;28;20447;-72
2022/10/05 03:21:58;;;;;;;1.57;1.00;;;11.30;99.90;;;;;;5052631;28;20461;-72
2022/10/05 03:24:44;;;;;;;1.50;0.90;;;11.30;99.90;;;;;;5053945;28;20451;-72
2022/10/05 03:27:26;;;;;;;1.30;0.87;;;11.30;99.90;;;;;;5052282;28;20455;-72
2022/10/05 03:30:01;;;;;;;1.83;1.00;;;11.30;99.90;;;;;;5054464;28;20551;-72
2022/10/05 03:32:41;;;;;;;1.77;1.00;;;11.40;99.90;;;;;;5054589;28;20522;-73
2022/10/05 03:35:14;;;;;;;1.43;1.10;;;11.50;99.90;;;;;;5053099;28;20451;-73
2022/10/05 03:37:48;;;;;;;1.97;1.10;;;11.50;99.90;;;;;;5055808;28;20447;-72
2022/10/05 03:40:25;;;;;;;1.20;0.90;;;11.40;99.90;;;;;;5052474;28;20871;-72
2022/10/05 03:43:00;;;;;;;1.33;0.90;;;11.30;99.90;;;;;;5055941;28;20546;-72
2022/10/05 03:45:34;;;;;;;1.33;0.80;;;11.30;99.90;;;;;;5053280;28;20459;-72
2022/10/05 03:48:07;;;;;;;2.80;1.07;;;11.30;99.90;;;;;;5055703;28;20451;-72
2022/10/05 03:50:42;;;;;;;1.47;1.00;;;11.30;99.90;;;;;;5052184;28;20485;-73
2022/10/05 03:53:15;;;;;;;2.33;0.90;;;11.40;99.90;;;;;;5056220;28;20453;-73
2022/10/05 03:55:48;;;;;;;1.90;0.90;;;11.40;99.90;;;;;;5052470;28;20447;-72
2022/10/05 03:58:22;;;;;;;3.70;1.00;;;11.40;99.90;;;;;;5058995;28;20443;-72
2022/10/05 04:00:53;;;;;;;1.53;1.10;;;11.50;99.90;;;;;;5055552;28;20459;-72
2022/10/05 04:03:26;;;;;;;1.20;0.80;;;11.50;99.90;;;;;;5057082;28;20447;-72
2022/10/05 04:05:58;;;;;;;2.47;1.00;;;11.50;99.90;;;;;;5053783;28;20461;-72
2022/10/05 04:08:35;;;;;;;1.10;0.80;;;11.60;99.90;;;;;;5057781;28;20451;-72
2022/10/05 04:11:06;;;;;;;2.03;1.10;;;11.60;99.90;;;;;;5054605;28;20585;-72
2022/10/05 04:13:39;;;;;;;2.07;0.90;;;11.70;99.90;;;;;;5057779;28;20477;-72
2022/10/05 04:16:12;;;;;;;3.00;0.80;;;11.60;99.90;;;;;;5056081;28;20466;-71
2022/10/05 04:18:45;;;;;;;1.80;1.00;;;11.70;99.90;;;;;;5057236;28;20770;-72
2022/10/05 04:21:19;;;;;;;1.60;0.90;;;11.50;99.90;;;;;;5054624;28;20453;-72
2022/10/05 04:23:53;;;;;;;1.50;1.00;;;11.50;99.90;;;;;;5057902;28;20960;-72
2022/10/05 04:26:29;;;;;;;1.43;1.10;;;11.50;99.90;;;;;;5055471;28;20465;-71
2022/10/05 04:29:03;;;;;;;1.87;0.97;;;11.60;99.90;;;;;;5057944;28;20740;-72
2022/10/05 04:31:43;;;;;;;3.10;1.17;;;11.50;99.90;;;;;;5054020;28;21033;-72
2022/10/05 04:34:25;;;;;;;3.97;1.10;;;11.40;99.90;;;;;;5057942;28;20717;-70
2022/10/05 04:36:59;;;;;;;2.60;1.30;;;11.20;99.90;;;;;;5054655;28;20465;-71
2022/10/05 04:39:37;;;;;;;2.67;1.20;;;11.10;99.90;;;;;;5058249;28;20522;-70
2022/10/05 04:42:15;;;;;;;3.83;1.40;;;11.20;99.90;;;;;;5056819;28;20447;-71
2022/10/05 04:44:56;;;;;;;1.40;1.00;;;11.20;99.90;;;;;;5056691;28;20859;-71
2022/10/05 04:47:39;;;;;;;1.30;1.00;;;11.20;99.90;;;;;;5058284;28;20534;-71
2022/10/05 04:50:21;;;;;;;1.97;1.10;;;11.20;99.90;;;;;;5052214;28;20443;-70
2022/10/05 04:52:57;;;;;;;2.63;1.47;;;11.20;99.90;;;;;;5056703;28;20452;-71
2022/10/05 04:55:31;;;;;;;3.30;1.30;;;11.10;99.90;;;;;;5053399;28;20754;-71
2022/10/05 04:58:08;;;;;;;2.27;1.30;;;11.10;99.90;;;;;;5055619;28;20450;-71
2022/10/05 05:00:48;;;;;;;2.30;1.40;;;11.10;99.90;;;;;;5054568;28;20439;-71
2022/10/05 05:03:44;;;;;;;2.63;1.30;;;11.10;99.90;;;;;;5056112;28;20513;-71
2022/10/05 05:06:24;;;;;;;1.80;1.20;;;11.20;99.90;;;;;;5052357;28;20455;-71
2022/10/05 05:09:13;;;;;;;2.80;1.10;;;11.30;99.90;;;;;;5057256;28;20546;-71
2022/10/05 05:11:50;;;;;;;1.97;1.20;;;11.30;99.90;;;;;;5053901;28;20478;-71
2022/10/05 05:14:41;;;;;;;3.73;1.20;;;11.30;99.90;;;;;;5056460;28;20680;-71
2022/10/05 05:17:25;;;;;;;1.50;1.20;;;11.30;99.90;;;;;;5055226;28;20461;-72
2022/10/05 05:20:01;;;;;;;3.93;1.50;;;11.40;99.90;;;;;;5057305;28;20450;-72
2022/10/05 05:22:36;;;;;;;2.33;1.33;;;11.40;99.90;;;;;;5057639;28;20454;-71
2022/10/05 05:25:20;;;;;;;4.03;1.50;;;11.40;99.90;;;;;;5052645;28;20971;-71
2022/10/05 05:27:52;;;;;;;1.90;1.03;;;11.40;99.90;;;;;;5056286;28;20447;-72
2022/10/05 05:30:24;;;;;;;1.60;1.10;;;11.30;99.90;;;;;;5053393;28;20455;-72
2022/10/05 05:33:18;;;;;;;2.43;1.20;;;11.40;99.90;;;;;;5055470;28;20473;-71
2022/10/05 05:36:16;;;;;;;3.47;1.00;;;11.30;99.90;;;;;;5052164;28;20458;-71
2022/10/05 05:38:57;;;;;;;5.20;1.90;;;11.30;99.90;;;;;;5053645;28;20528;-72
2022/10/05 05:41:30;;;;;;;1.67;1.10;;;11.40;99.90;;;;;;5052928;28;20550;-70
2022/10/05 05:44:08;;;;;;;2.20;1.20;;;11.40;99.90;;;;;;5055592;28;20953;-72
2022/10/05 05:46:37;;;;;;;1.87;1.20;;;11.30;99.90;;;;;;5054403;28;20461;-72
2022/10/05 05:49:13;;;;;;;1.97;1.30;;;11.50;99.90;;;;;;5056135;28;20522;-70
2022/10/05 05:51:47;;;;;;;3.00;1.30;;;11.50;99.90;;;;;;5055096;28;20490;-69
2022/10/05 05:54:26;;;;;;;2.90;1.50;;;11.70;99.90;;;;;;5056473;28;20551;-70
2022/10/05 05:56:58;;;;;;;2.67;1.20;;;11.70;99.90;;;;;;5053275;28;20458;-70
2022/10/05 05:59:32;;;;;;;2.90;1.30;;;11.60;99.90;;;;;;5054673;28;20447;-71
2022/10/05 06:02:06;;;;;;;2.03;1.40;;;11.70;99.90;;;;;;5051694;28;20872;-70
2022/10/05 06:04:39;;;;;;;3.43;1.20;;;11.70;99.90;;;;;;5054202;28;20996;-71
2022/10/05 06:07:11;;;;;;;2.13;1.20;;;11.70;99.90;;;;;;5051459;28;20768;-71
2022/10/05 06:09:45;;;;;;;3.07;1.20;;;11.80;99.90;;;;;;5053092;28;20454;-70
2022/10/05 06:12:16;;;;;;;3.93;1.93;;;11.90;99.90;;;;;;5031837;28;20788;-70
2022/10/05 06:14:48;;;;;;;1.77;1.03;;;11.90;99.90;;;;;;5035149;28;20502;-71
2022/10/05 06:17:19;;;;;;;2.40;1.20;;;11.70;99.90;;;;;;5048606;28;20521;-71
2022/10/05 06:19:47;;;;;;;4.33;1.10;;;11.60;99.90;;;;;;5052684;28;20684;-70
2022/10/05 06:22:18;;;;;;;2.83;1.20;;;11.50;99.90;;;;;;5048415;28;20452;-70
2022/10/05 06:25:09;;;;;;;1.73;1.10;;;11.30;99.90;;;;;;5055446;28;20448;-70
2022/10/05 06:27:36;;;;;;;2.60;1.20;;;11.20;99.90;;;;;;5055655;28;21111;-69
2022/10/05 06:30:07;;;;;;;2.17;1.30;;;11.00;99.90;;;;;;5049319;28;20462;-71
2022/10/05 06:32:42;;;;;;;1.60;1.10;;;11.20;99.90;;;;;;5049393;28;20479;-70
2022/10/05 06:35:21;;;;;;;2.57;1.53;;;11.40;99.90;;;;;;5051245;28;20443;-69
2022/10/05 06:38:04;;;;;;;3.53;1.40;;;11.50;99.90;;;;;;5051790;28;20463;-70
2022/10/05 06:40:45;;;;;;;2.87;1.17;;;11.40;99.90;;;;;;5051633;28;20482;-70
2022/10/05 06:43:26;;;;;;;2.10;1.20;;;11.50;99.90;;;;;;5052608;28;20945;-71
2022/10/05 06:46:06;;;;;;;3.67;1.37;;;11.50;99.90;;;;;;5049818;28;20443;-70
2022/10/05 06:48:46;;;;;;;3.43;1.20;;;11.60;99.90;;;;;;5047950;28;20463;-70
2022/10/05 06:51:22;;;;;;;2.17;1.47;;;11.60;99.90;;;;;;5045873;28;20799;-71
2022/10/05 06:53:59;;;;;;;1.67;1.10;;;11.60;99.90;;;;;;5049664;28;20831;-72
2022/10/05 06:56:32;;;;;;;2.67;1.40;;;11.50;99.90;;;;;;5049516;28;20473;-71
2022/10/05 06:59:09;;;;;;;4.23;1.87;;;11.40;99.90;;;;;;5053275;28;20447;-70
2022/10/05 07:01:47;;;;;;;2.67;1.23;;;11.40;99.90;;;;;;5050567;28;20465;-73
2022/10/05 07:04:34;;;;;;;2.80;1.40;;;11.30;99.90;;;;;;5051950;28;20465;-71
2022/10/05 07:07:05;;;;;;;1.83;1.40;;;11.30;99.90;;;;;;5050391;28;20466;-73
2022/10/05 07:09:41;;;;;;;1.80;1.10;;;11.40;99.90;;;;;;5049660;28;20900;-72
2022/10/05 07:12:27;;;;;;;1.77;1.50;;;11.50;99.90;;;;;;5046361;28;20487;-72
2022/10/05 07:15:07;;;;;;;1.80;1.37;;;11.70;99.90;;;;;;5054465;28;20454;-72
2022/10/05 07:17:49;;;;;;;3.07;1.70;;;11.90;99.90;;;;;;5053366;28;20537;-72
2022/10/05 07:20:22;;;;;;;4.80;1.40;;;11.80;99.90;;;;;;5049031;28;20463;-72
2022/10/05 07:23:08;;;;;;;2.50;1.33;;;11.70;99.90;;;;;;5053430;28;20445;-72
2022/10/05 07:25:40;;;;;;;3.40;1.83;;;11.70;99.90;;;;;;5050963;28;20469;-72
2022/10/05 07:28:13;;;;;;;2.50;1.37;;;11.90;99.90;;;;;;5054632;28;20461;-72
2022/10/05 07:30:47;;;;;;;2.90;1.70;;;12.10;99.90;;;;;;5053052;28;20467;-72
2022/10/05 07:33:20;;;;;;;1.87;1.30;;;12.30;99.90;;;;;;5058324;28;20446;-71
2022/10/05 07:38:45;;;;;;;3.67;1.30;;;12.60;95.90;;;;;;5055284;28;20877;-72
2022/10/05 07:41:18;;;;;;;3.20;1.30;;;12.70;98.40;;;;;;5044828;28;20448;-72
2022/10/05 07:43:54;;;;;;;2.30;1.23;;;12.70;89.50;;;;;;5057431;28;20953;-72
2022/10/05 07:46:26;;;;;;;2.53;1.23;;;12.60;95.80;;;;;;5053205;28;20501;-71
2022/10/05 07:49:02;;;;;;;2.97;1.47;;;12.70;99.90;;;;;;5056565;28;20448;-71
2022/10/05 07:51:34;;;;;;;5.03;2.13;;;12.80;96.90;;;;;;5053466;28;20482;-71
2022/10/05 07:54:14;;;;;;;1.80;1.10;;;12.70;88.00;;;;;;5054766;28;20443;-71
2022/10/05 07:56:43;;;;;;;3.40;1.23;;;12.70;99.20;;;;;;5050222;28;20476;-72
2022/10/05 07:59:21;;;;;;;2.40;1.40;;;12.90;97.50;;;;;;5055026;28;20467;-71
2022/10/05 08:01:54;;;;;;;2.40;1.23;;;13.00;74.60;;;;;;5052708;28;20458;-72
2022/10/05 08:04:26;;;;;;;3.00;1.43;;;13.20;63.60;;;;;;5055961;28;20608;-72
2022/10/05 08:06:59;;;;;;;15.40;2.03;;;13.40;47.50;;;;;;5051916;28;20463;-72
2022/10/05 08:09:41;;;;;;;3.60;1.73;;;13.40;40.80;;;;;;5055451;28;20841;-71
2022/10/05 08:12:19;;;;;;;1.70;1.10;;;13.50;31.60;;;;;;5053181;28;20493;-72
2022/10/05 08:14:55;;;;;;;7.13;2.43;;;13.40;24.20;;;;;;5056415;28;20874;-72
2022/10/05 08:17:31;;;;;;;2.13;1.30;;;13.40;42.20;;;;;;5036169;28;20444;-73
2022/10/05 08:20:09;;;;;;;1.97;1.13;;;13.50;42.10;;;;;;5047265;28;20964;-73
2022/10/05 08:22:44;;;;;;;2.23;1.13;;;13.60;38.10;;;;;;5052544;28;20905;-73
2022/10/05 08:25:19;;;;;;;2.10;1.10;;;13.80;24.50;;;;;;5052190;28;20447;-73
2022/10/05 08:27:51;;;;;;;7.63;1.70;;;13.90;13.90;;;;;;5052834;28;20920;-72
2022/10/05 08:30:20;;;;;;;1.70;1.13;;;13.90;6.60;;;;;;5050091;28;20459;-73
2022/10/05 08:32:54;;;;;;;2.63;1.87;;;13.90;10.70;;;;;;5054575;28;20487;-72
2022/10/05 08:35:28;;;;;;;2.23;1.33;;;14.00;10.30;;;;;;5048390;28;20470;-72
2022/10/05 08:37:56;;;;;;;1.93;1.20;;;13.90;11.90;;;;;;5056323;28;20538;-72
2022/10/05 08:40:53;;;;;;;2.10;1.20;;;13.80;9.40;;;;;;5052640;28;20459;-72
2022/10/05 08:43:33;;;;;;;3.60;1.90;;;13.80;12.10;;;;;;5014921;28;20491;-72
2022/10/05 08:46:21;;;;;;;1.80;1.17;;;13.80;13.50;;;;;;5052502;28;20504;-72
2022/10/05 08:49:01;;;;;;;2.63;1.40;;;13.90;18.40;;;;;;5056896;28;20883;-72
2022/10/05 08:51:56;;;;;;;1.63;1.10;;;14.00;13.80;;;;;;5052354;28;20491;-72
2022/10/05 08:55:07;;;;;;;2.73;1.40;;;14.30;4.50;;;;;;5038894;28;20464;-72
2022/10/05 08:57:58;;;;;;;3.53;2.00;;;14.50;1.00;;;;;;4970137;28;20885;-73
2022/10/05 09:00:30;;;;;;;2.83;2.00;;;14.50;1.00;;;;;;5024562;28;20467;-72
2022/10/05 09:03:21;;;;;;;2.30;1.37;;;14.50;1.00;;;;;;5037697;28;20739;-73
2022/10/05 09:06:28;;;;;;;3.10;1.47;;;14.60;1.00;;;;;;5055543;28;20453;-72
2022/10/05 09:09:44;;;;;;;4.33;1.73;;;14.80;1.00;;;;;;4970337;28;20759;-72
2022/10/05 09:12:39;;;;;;;1.43;1.13;;;14.90;1.00;;;;;;4971332;28;20589;-72
2022/10/05 09:15:27;;;;;;;1.70;1.33;;;15.00;1.00;;;;;;4973511;28;20958;-72
2022/10/05 09:18:36;;;;;;;2.90;1.40;;;15.30;1.00;;;;;;5033786;28;20899;-72
2022/10/05 09:21:12;;;;;;;2.97;1.33;;;15.40;1.00;;;;;;4976971;28;20470;-72
2022/10/05 09:23:41;;;;;;;1.47;1.10;;;15.50;1.00;;;;;;5052475;28;20450;-73
2022/10/05 09:26:28;;;;;;;2.03;1.40;;;15.60;1.00;;;;;;5054275;28;20459;-73
2022/10/05 09:29:08;;;;;;;2.33;1.60;;;15.70;1.00;;;;;;5033807;28;20440;-73
2022/10/05 09:32:03;;;;;;;3.40;1.93;;;15.80;1.00;;;;;;5051637;28;20459;-72
2022/10/05 09:35:01;;;;;;;3.93;1.50;;;15.80;1.00;;;;;;5047947;28;20471;-73
2022/10/05 09:37:53;;;;;;;1.70;1.17;;;15.80;1.00;;;;;;5052874;28;21045;-73
2022/10/05 09:40:59;;;;;;;3.97;1.33;;;16.00;1.00;;;;;;5052488;28;20472;-73
2022/10/05 09:44:03;;;;;;;5.87;1.53;;;16.20;1.00;;;;;;5008373;28;20483;-73
2022/10/05 09:46:59;;;;;;;3.63;2.20;;;16.50;1.00;;;;;;5054636;28;20815;-72
2022/10/05 09:49:48;;;;;;;1.67;1.30;;;16.80;1.00;;;;;;5029489;28;20444;-72
2022/10/05 09:52:51;;;;;;;2.70;1.53;;;17.00;1.00;;;;;;5035982;28;20571;-74
2022/10/05 09:55:53;;;;;;;2.33;1.20;;;17.30;1.00;;;;;;5048726;28;20532;-73
2022/10/05 09:58:52;;;;;;;2.50;1.37;;;17.60;1.00;;;;;;5054785;28;20546;-73
2022/10/05 10:01:30;;;;;;;2.07;1.63;;;17.70;1.00;;;;;;5050297;28;20482;-73
2022/10/05 10:04:29;;;;;;;2.20;1.17;;;17.90;1.00;;;;;;5053198;28;20477;-73
2022/10/05 10:07:31;;;;;;;3.07;1.20;;;18.00;1.00;;;;;;5053528;28;20444;-73
2022/10/05 10:10:19;;;;;;;1.67;1.10;;;18.20;99.90;;;;;;5054257;28;20549;-73
2022/10/05 10:13:17;;;;;;;2.40;1.43;;;18.60;1.00;;;;;;5053484;28;20497;-73
2022/10/05 10:16:05;;;;;;;1.93;1.20;;;18.90;1.00;;;;;;5053196;28;20481;-73
2022/10/05 10:18:54;;;;;;;1.50;1.17;;;19.10;99.90;;;;;;5047243;28;20924;-73
2022/10/05 10:21:42;;;;;;;1.67;1.20;;;19.30;17.70;;;;;;5052554;28;20534;-72
2022/10/05 10:24:18;;;;;;;2.00;1.10;;;19.40;1.00;;;;;;5050583;28;20443;-73
2022/10/05 10:27:26;;;;;;;1.27;1.00;;;19.60;99.90;;;;;;5052095;28;20459;-72
2022/10/05 10:30:26;;;;;;;2.23;0.90;;;19.70;1.00;;;;;;5035773;28;20467;-72
2022/10/05 10:33:20;;;;;;;1.30;1.00;;;20.00;99.90;;;;;;5045841;28;20585;-71
2022/10/05 10:35:58;;;;;;;1.40;1.03;;;20.20;44.50;;;;;;5048633;28;20490;-71
2022/10/05 10:38:51;;;;;;;1.93;1.00;;;20.40;1.00;;;;;;5051663;28;20454;-71
2022/10/05 10:41:51;;;;;;;2.27;0.90;;;20.50;1.00;;;;;;5049000;28;20457;-71
2022/10/05 10:44:57;;;;;;;1.40;0.90;;;20.70;1.00;;;;;;5049013;28;20451;-72
2022/10/05 10:48:03;;;;;;;1.83;1.07;;;21.00;21.70;;;;;;5053146;28;20196;-72
2022/10/05 10:51:10;;;;;;;1.00;0.87;;;21.10;1.00;;;;;;4966058;28;20463;-71
2022/10/05 10:54:14;;;;;;;1.90;0.80;;;21.30;1.00;;;;;;5052272;28;20489;-72
2022/10/05 10:56:54;;;;;;;1.13;0.70;;;21.50;1.00;;;;;;5050069;28;20451;-71
2022/10/05 10:59:58;;;;;;;1.40;0.70;;;21.70;41.40;;;;;;5051889;28;20512;-71
2022/10/05 11:02:41;;;;;;;0.90;0.60;;;22.00;1.00;;;;;;5051267;28;20461;-71
2022/10/05 11:05:28;;;;;;;1.40;0.80;;;22.10;1.00;;;;;;5053686;28;20517;-72
2022/10/05 11:08:12;;;;;;;0.80;0.60;;;22.10;1.00;;;;;;5012162;28;20467;-71
2022/10/05 11:11:07;;;;;;;1.10;0.50;;;22.10;1.00;;;;;;5051952;28;20459;-73
2022/10/05 11:14:06;;;;;;;0.60;0.40;;;22.30;1.00;;;;;;5048670;28;20518;-71
2022/10/05 11:17:09;;;;;;;0.80;0.50;;;22.40;1.00;;;;;;5037529;28;20772;-73
2022/10/05 11:20:01;;;;;;;0.73;0.50;;;22.30;1.00;;;;;;5037492;28;20459;-71
2022/10/05 11:22:50;;;;;;;0.60;0.40;;;22.10;1.00;;;;;;5051094;28;20545;-71
2022/10/05 11:25:43;;;;;;;0.70;0.47;;;22.30;1.00;;;;;;5052485;28;20540;-71
2022/10/05 11:28:27;;;;;;;0.67;0.40;;;22.40;1.00;;;;;;5053675;28;20466;-71
2022/10/05 11:31:33;;;;;;;0.60;0.50;;;22.60;1.00;;;;;;5057454;28;20482;-71
2022/10/05 11:34:36;;;;;;;0.97;0.60;;;22.80;1.00;;;;;;5037000;28;20578;-71
2022/10/05 11:37:38;;;;;;;2.60;1.67;;;22.80;1.00;;;;;;5033301;28;20919;-72
2022/10/05 11:40:47;;;;;;;2.00;1.10;;;22.90;99.90;;;;;;5037653;28;20459;-72
2022/10/05 11:43:45;;;;;;;1.30;0.90;;;23.00;99.90;;;;;;5047806;28;20483;-73
2022/10/05 11:46:26;;;;;;;0.60;0.50;;;23.30;99.90;;;;;;5049598;28;20460;-73
2022/10/05 11:49:20;;;;;;;1.57;0.53;;;23.30;99.90;;;;;;5048628;28;20458;-73
2022/10/05 11:52:01;;;;;;;0.70;0.50;;;23.40;99.90;;;;;;5047098;28;20561;-73
2022/10/05 11:54:40;;;;;;;0.50;0.40;;;23.30;99.90;;;;;;5055124;28;20579;-73
2022/10/05 11:57:16;;;;;;;0.73;0.53;;;23.10;99.90;;;;;;5039850;28;20559;-72
2022/10/05 11:59:52;;;;;;;0.80;0.57;;;23.10;99.90;;;;;;5054361;28;20921;-73
2022/10/05 12:02:56;;;;;;;0.73;0.50;;;23.10;1.00;;;;;;5055144;28;20477;-73
2022/10/05 12:05:27;;;;;;;1.07;0.60;;;23.00;1.00;;;;;;5055371;28;20453;-73
2022/10/05 12:08:17;;;;;;;1.27;0.50;;;23.00;1.00;;;;;;5050588;28;20459;-72
2022/10/05 12:10:55;;;;;;;0.60;0.40;;;23.00;1.00;;;;;;5054825;28;20526;-73
2022/10/05 12:13:33;;;;;;;0.63;0.50;;;23.10;1.00;;;;;;5057130;28;20566;-73
2022/10/05 12:16:07;;;;;;;0.80;0.50;;;23.00;1.00;;;;;;5052836;28;20447;-73
2022/10/05 12:18:48;;;;;;;0.70;0.50;;;23.00;1.00;;;;;;5054101;28;20451;-72
2022/10/05 12:21:27;;;;;;;0.83;0.60;;;23.00;1.00;;;;;;5051722;28;20439;-72
2022/10/05 12:23:57;;;;;;;0.60;0.57;;;23.10;1.00;;;;;;5051573;28;20746;-73
2022/10/05 12:26:31;;;;;;;0.90;0.50;;;23.20;1.00;;;;;;5049687;28;20482;-72
2022/10/05 12:29:04;;;;;;;0.80;0.47;;;23.20;1.00;;;;;;5053271;28;20509;-72
2022/10/05 12:31:41;;;;;;;0.60;0.50;;;23.20;1.00;;;;;;5050311;28;20459;-73
2022/10/05 12:34:18;;;;;;;0.80;0.60;;;23.10;1.00;;;;;;5052865;28;20483;-72
2022/10/05 12:36:51;;;;;;;0.63;0.50;;;23.10;1.00;;;;;;5050364;28;20910;-72
2022/10/05 12:39:24;;;;;;;0.70;0.50;;;23.20;1.00;;;;;;5053964;28;20910;-73
2022/10/05 12:42:03;;;;;;;0.80;0.60;;;23.20;1.00;;;;;;5053887;28;20451;-73
2022/10/05 12:44:49;;;;;;;0.50;0.40;;;23.20;1.00;;;;;;5050523;28;20515;-72
2022/10/05 12:47:24;;;;;;;0.80;0.40;;;23.40;1.00;;;;;;5055628;28;20457;-74
2022/10/05 12:50:03;;;;;;;1.63;0.50;;;23.40;1.00;;;;;;5050134;28;20474;-72
2022/10/05 12:53:00;;;;;;;0.50;0.40;;;23.50;99.90;;;;;;5054950;28;20530;-75
2022/10/05 12:55:34;;;;;;;0.43;0.37;;;23.40;1.00;;;;;;5055375;28;20534;-74
2022/10/05 12:58:15;;;;;;;1.53;0.50;;;23.50;99.90;;;;;;5049224;28;20480;-75
2022/10/05 13:00:52;;;;;;;0.60;0.40;;;23.50;99.90;;;;;;5055047;28;20439;-76
2022/10/05 13:03:25;;;;;;;2.70;0.37;;;23.60;99.90;;;;;;5049963;28;20461;-73
2022/10/05 13:06:03;;;;;;;0.80;0.30;;;23.60;1.00;;;;;;5053609;28;20505;-73
2022/10/05 13:08:36;;;;;;;0.67;0.40;;;23.50;1.00;;;;;;5053701;28;20467;-73
2022/10/05 13:11:11;;;;;;;0.50;0.30;;;23.60;1.00;;;;;;5055504;28;20448;-73
2022/10/05 13:13:49;;;;;;;0.50;0.37;;;23.60;1.00;;;;;;5049915;28;20482;-74
2022/10/05 13:16:28;;;;;;;0.80;0.40;;;23.60;1.00;;;;;;5051563;28;20754;-74
2022/10/05 13:19:15;;;;;;;0.50;0.30;;;23.50;1.00;;;;;;5042039;28;21145;-72
2022/10/05 13:21:57;;;;;;;0.40;0.30;;;23.60;1.00;;;;;;5055149;28;20447;-73
2022/10/05 13:24:29;;;;;;;0.50;0.30;;;23.60;1.00;;;;;;5052566;28;20976;-73
2022/10/05 13:27:03;;;;;;;0.60;0.30;;;23.50;1.00;;;;;;5052082;28;20538;-73
2022/10/05 13:29:37;;;;;;;0.40;0.30;;;23.50;1.00;;;;;;5051215;28;20462;-72
2022/10/05 13:32:14;;;;;;;0.40;0.30;;;23.50;1.00;;;;;;5053338;28;20466;-72
2022/10/05 13:34:51;;;;;;;0.43;0.30;;;23.50;1.00;;;;;;5050041;28;20937;-72
2022/10/05 13:37:25;;;;;;;0.50;0.30;;;23.50;1.00;;;;;;5054908;28;20453;-72
2022/10/05 13:40:00;;;;;;;0.50;0.30;;;23.40;1.00;;;;;;5051539;28;20553;-72
2022/10/05 13:42:34;;;;;;;0.67;0.30;;;23.40;1.00;;;;;;5052653;28;20526;-72
2022/10/05 13:45:11;;;;;;;0.53;0.30;;;23.30;1.00;;;;;;5050381;28;20922;-72
2022/10/05 13:48:01;;;;;;;0.50;0.20;;;23.40;1.00;;;;;;5049596;28;20439;-73
2022/10/05 13:50:32;;;;;;;0.50;0.20;;;23.40;1.00;;;;;;5050058;28;20459;-74
2022/10/05 13:53:09;;;;;;;0.40;0.30;;;23.40;1.00;;;;;;5049576;28;20476;-72
2022/10/05 13:55:45;;;;;;;0.60;0.30;;;23.40;1.00;;;;;;5056345;28;20545;-73
2022/10/05 13:58:21;;;;;;;0.90;0.30;;;23.40;1.00;;;;;;5050362;28;20454;-73